sensor_id;sensor_type;location;lat;lon;timestamp;P1;durP1;ratioP1;P2;durP2;ratioP2
80307;SDS011;69616;43.522;1.348;2023-04-28T00:01:14;13.18;;;4.63;;
80307;SDS011;69616;43.522;1.348;2023-04-28T00:03:40;5.80;;;1.30;;
80307;SDS011;69616;43.522;1.348;2023-04-28T00:06:05;3.90;;;0.90;;
80307;SDS011;69616;43.522;1.348;2023-04-28T00:08:31;4.20;;;1.20;;
80307;SDS011;69616;43.522;1.348;2023-04-28T00:10:56;9.37;;;2.87;;
80307;SDS011;69616;43.522;1.348;2023-04-28T00:13:22;4.17;;;0.83;;
80307;SDS011;69616;43.522;1.348;2023-04-28T00:15:50;4.33;;;1.00;;
80307;SDS011;69616;43.522;1.348;2023-04-28T00:18:19;5.53;;;0.80;;
80307;SDS011;69616;43.522;1.348;2023-04-28T00:20:45;4.13;;;1.00;;
80307;SDS011;69616;43.522;1.348;2023-04-28T00:23:10;4.18;;;0.80;;
80307;SDS011;69616;43.522;1.348;2023-04-28T00:25:36;6.40;;;0.90;;
80307;SDS011;69616;43.522;1.348;2023-04-28T00:28:01;4.90;;;0.90;;
80307;SDS011;69616;43.522;1.348;2023-04-28T00:30:28;3.50;;;0.70;;
80307;SDS011;69616;43.522;1.348;2023-04-28T00:32:54;4.10;;;0.60;;
80307;SDS011;69616;43.522;1.348;2023-04-28T00:35:19;3.72;;;0.60;;
80307;SDS011;69616;43.522;1.348;2023-04-28T00:37:45;3.40;;;0.93;;
80307;SDS011;69616;43.522;1.348;2023-04-28T00:40:10;4.43;;;1.00;;
80307;SDS011;69616;43.522;1.348;2023-04-28T00:42:36;3.08;;;0.68;;
80307;SDS011;69616;43.522;1.348;2023-04-28T00:45:02;4.60;;;0.90;;
80307;SDS011;69616;43.522;1.348;2023-04-28T00:47:31;4.10;;;0.73;;
80307;SDS011;69616;43.522;1.348;2023-04-28T00:49:58;3.70;;;0.80;;
80307;SDS011;69616;43.522;1.348;2023-04-28T00:52:25;3.27;;;1.10;;
80307;SDS011;69616;43.522;1.348;2023-04-28T00:54:51;4.00;;;0.75;;
80307;SDS011;69616;43.522;1.348;2023-04-28T00:57:17;3.28;;;0.60;;
80307;SDS011;69616;43.522;1.348;2023-04-28T00:59:43;4.57;;;0.80;;
80307;SDS011;69616;43.522;1.348;2023-04-28T01:02:08;3.67;;;0.68;;
80307;SDS011;69616;43.522;1.348;2023-04-28T01:04:41;4.63;;;0.80;;
80307;SDS011;69616;43.522;1.348;2023-04-28T01:07:07;4.07;;;0.68;;
80307;SDS011;69616;43.522;1.348;2023-04-28T01:09:33;3.57;;;0.80;;
80307;SDS011;69616;43.522;1.348;2023-04-28T01:11:58;4.38;;;0.80;;
80307;SDS011;69616;43.522;1.348;2023-04-28T01:14:24;4.20;;;0.80;;
80307;SDS011;69616;43.522;1.348;2023-04-28T01:16:49;6.53;;;1.13;;
80307;SDS011;69616;43.522;1.348;2023-04-28T01:19:20;4.35;;;1.00;;
80307;SDS011;69616;43.522;1.348;2023-04-28T01:21:47;3.65;;;0.75;;
80307;SDS011;69616;43.522;1.348;2023-04-28T01:24:13;4.43;;;0.70;;
80307;SDS011;69616;43.522;1.348;2023-04-28T01:26:38;4.97;;;1.27;;
80307;SDS011;69616;43.522;1.348;2023-04-28T01:29:04;4.73;;;0.90;;
80307;SDS011;69616;43.522;1.348;2023-04-28T01:31:29;4.50;;;0.90;;
80307;SDS011;69616;43.522;1.348;2023-04-28T01:33:55;4.10;;;0.90;;
80307;SDS011;69616;43.522;1.348;2023-04-28T01:36:21;3.92;;;0.90;;
80307;SDS011;69616;43.522;1.348;2023-04-28T01:38:47;4.15;;;0.93;;
80307;SDS011;69616;43.522;1.348;2023-04-28T01:41:16;4.67;;;1.10;;
80307;SDS011;69616;43.522;1.348;2023-04-28T01:43:41;4.50;;;1.10;;
80307;SDS011;69616;43.522;1.348;2023-04-28T01:46:08;4.83;;;1.17;;
80307;SDS011;69616;43.522;1.348;2023-04-28T01:48:36;5.28;;;1.00;;
80307;SDS011;69616;43.522;1.348;2023-04-28T01:51:01;4.63;;;0.93;;
80307;SDS011;69616;43.522;1.348;2023-04-28T01:53:26;3.53;;;0.93;;
80307;SDS011;69616;43.522;1.348;2023-04-28T01:55:52;5.63;;;1.00;;
80307;SDS011;69616;43.522;1.348;2023-04-28T01:58:18;4.47;;;1.10;;
80307;SDS011;69616;43.522;1.348;2023-04-28T02:00:43;5.68;;;1.20;;
80307;SDS011;69616;43.522;1.348;2023-04-28T02:03:09;4.50;;;0.98;;
80307;SDS011;69616;43.522;1.348;2023-04-28T02:05:35;3.10;;;1.00;;
80307;SDS011;69616;43.522;1.348;2023-04-28T02:08:01;4.28;;;1.13;;
80307;SDS011;69616;43.522;1.348;2023-04-28T02:10:26;3.67;;;1.00;;
80307;SDS011;69616;43.522;1.348;2023-04-28T02:12:52;4.23;;;0.90;;
80307;SDS011;69616;43.522;1.348;2023-04-28T02:15:17;5.37;;;1.10;;
80307;SDS011;69616;43.522;1.348;2023-04-28T02:17:43;2.60;;;0.70;;
80307;SDS011;69616;43.522;1.348;2023-04-28T02:20:09;3.65;;;0.90;;
80307;SDS011;69616;43.522;1.348;2023-04-28T02:22:34;3.87;;;1.00;;
80307;SDS011;69616;43.522;1.348;2023-04-28T02:25:00;3.58;;;1.00;;
80307;SDS011;69616;43.522;1.348;2023-04-28T02:27:26;4.13;;;1.00;;
80307;SDS011;69616;43.522;1.348;2023-04-28T02:29:51;6.13;;;1.00;;
80307;SDS011;69616;43.522;1.348;2023-04-28T02:32:17;4.13;;;0.90;;
80307;SDS011;69616;43.522;1.348;2023-04-28T02:34:42;4.10;;;1.00;;
80307;SDS011;69616;43.522;1.348;2023-04-28T02:37:08;8.70;;;1.10;;
80307;SDS011;69616;43.522;1.348;2023-04-28T02:39:33;4.60;;;0.80;;
80307;SDS011;69616;43.522;1.348;2023-04-28T02:41:58;6.13;;;1.07;;
80307;SDS011;69616;43.522;1.348;2023-04-28T02:44:24;5.50;;;1.30;;
80307;SDS011;69616;43.522;1.348;2023-04-28T02:46:50;4.82;;;0.90;;
80307;SDS011;69616;43.522;1.348;2023-04-28T02:49:15;4.50;;;1.00;;
80307;SDS011;69616;43.522;1.348;2023-04-28T02:51:41;4.17;;;0.73;;
80307;SDS011;69616;43.522;1.348;2023-04-28T02:54:06;4.65;;;0.90;;
80307;SDS011;69616;43.522;1.348;2023-04-28T02:56:32;4.87;;;0.97;;
80307;SDS011;69616;43.522;1.348;2023-04-28T02:58:58;3.72;;;1.10;;
80307;SDS011;69616;43.522;1.348;2023-04-28T03:01:23;4.93;;;1.10;;
80307;SDS011;69616;43.522;1.348;2023-04-28T03:03:49;5.87;;;1.33;;
80307;SDS011;69616;43.522;1.348;2023-04-28T03:06:14;4.50;;;1.10;;
80307;SDS011;69616;43.522;1.348;2023-04-28T03:08:40;6.13;;;1.20;;
80307;SDS011;69616;43.522;1.348;2023-04-28T03:11:05;4.60;;;1.20;;
80307;SDS011;69616;43.522;1.348;2023-04-28T03:13:31;3.60;;;0.97;;
80307;SDS011;69616;43.522;1.348;2023-04-28T03:15:56;5.22;;;1.27;;
80307;SDS011;69616;43.522;1.348;2023-04-28T03:18:22;6.43;;;1.10;;
80307;SDS011;69616;43.522;1.348;2023-04-28T03:20:47;6.00;;;1.30;;
80307;SDS011;69616;43.522;1.348;2023-04-28T03:23:13;5.40;;;1.42;;
80307;SDS011;69616;43.522;1.348;2023-04-28T03:25:39;3.70;;;1.17;;
80307;SDS011;69616;43.522;1.348;2023-04-28T03:28:04;4.87;;;1.60;;
80307;SDS011;69616;43.522;1.348;2023-04-28T03:30:30;5.33;;;1.23;;
80307;SDS011;69616;43.522;1.348;2023-04-28T03:32:55;5.43;;;1.30;;
80307;SDS011;69616;43.522;1.348;2023-04-28T03:35:20;4.13;;;1.40;;
80307;SDS011;69616;43.522;1.348;2023-04-28T03:37:46;5.45;;;1.42;;
80307;SDS011;69616;43.522;1.348;2023-04-28T03:40:12;5.90;;;1.40;;
80307;SDS011;69616;43.522;1.348;2023-04-28T03:42:37;6.47;;;1.70;;
80307;SDS011;69616;43.522;1.348;2023-04-28T03:45:03;5.70;;;1.30;;
80307;SDS011;69616;43.522;1.348;2023-04-28T03:47:28;5.97;;;1.43;;
80307;SDS011;69616;43.522;1.348;2023-04-28T03:49:54;4.72;;;1.30;;
80307;SDS011;69616;43.522;1.348;2023-04-28T03:52:19;5.20;;;1.40;;
80307;SDS011;69616;43.522;1.348;2023-04-28T03:54:45;4.50;;;1.20;;
80307;SDS011;69616;43.522;1.348;2023-04-28T03:57:10;4.90;;;1.40;;
80307;SDS011;69616;43.522;1.348;2023-04-28T03:59:36;5.00;;;1.40;;
80307;SDS011;69616;43.522;1.348;2023-04-28T04:02:02;5.93;;;1.40;;
80307;SDS011;69616;43.522;1.348;2023-04-28T04:04:27;6.57;;;1.50;;
80307;SDS011;69616;43.522;1.348;2023-04-28T04:06:53;5.47;;;1.50;;
80307;SDS011;69616;43.522;1.348;2023-04-28T04:09:18;4.10;;;1.42;;
80307;SDS011;69616;43.522;1.348;2023-04-28T04:11:44;5.50;;;1.30;;
80307;SDS011;69616;43.522;1.348;2023-04-28T04:14:09;6.77;;;1.77;;
80307;SDS011;69616;43.522;1.348;2023-04-28T04:16:35;6.03;;;1.53;;
80307;SDS011;69616;43.522;1.348;2023-04-28T04:19:01;5.73;;;1.40;;
80307;SDS011;69616;43.522;1.348;2023-04-28T04:21:26;5.13;;;1.40;;
80307;SDS011;69616;43.522;1.348;2023-04-28T04:23:52;6.50;;;1.77;;
80307;SDS011;69616;43.522;1.348;2023-04-28T04:26:17;4.53;;;1.50;;
80307;SDS011;69616;43.522;1.348;2023-04-28T04:28:43;5.00;;;1.50;;
80307;SDS011;69616;43.522;1.348;2023-04-28T04:31:09;5.40;;;1.47;;
80307;SDS011;69616;43.522;1.348;2023-04-28T04:33:34;4.53;;;1.30;;
80307;SDS011;69616;43.522;1.348;2023-04-28T04:36:01;4.30;;;1.20;;
80307;SDS011;69616;43.522;1.348;2023-04-28T04:38:27;5.05;;;1.40;;
80307;SDS011;69616;43.522;1.348;2023-04-28T04:40:52;5.60;;;1.50;;
80307;SDS011;69616;43.522;1.348;2023-04-28T04:43:17;4.40;;;1.37;;
80307;SDS011;69616;43.522;1.348;2023-04-28T04:45:43;5.07;;;1.38;;
80307;SDS011;69616;43.522;1.348;2023-04-28T04:48:08;4.83;;;1.63;;
80307;SDS011;69616;43.522;1.348;2023-04-28T04:50:34;5.20;;;1.40;;
80307;SDS011;69616;43.522;1.348;2023-04-28T04:52:59;5.10;;;1.20;;
80307;SDS011;69616;43.522;1.348;2023-04-28T04:55:24;4.60;;;1.40;;
80307;SDS011;69616;43.522;1.348;2023-04-28T04:57:50;4.82;;;1.38;;
80307;SDS011;69616;43.522;1.348;2023-04-28T05:00:16;4.37;;;1.30;;
80307;SDS011;69616;43.522;1.348;2023-04-28T05:02:42;7.93;;;1.60;;
80307;SDS011;69616;43.522;1.348;2023-04-28T05:05:08;3.78;;;1.20;;
80307;SDS011;69616;43.522;1.348;2023-04-28T05:07:33;5.10;;;1.40;;
80307;SDS011;69616;43.522;1.348;2023-04-28T05:09:59;5.13;;;1.60;;
80307;SDS011;69616;43.522;1.348;2023-04-28T05:12:25;4.70;;;1.37;;
80307;SDS011;69616;43.522;1.348;2023-04-28T05:14:50;5.53;;;1.38;;
80307;SDS011;69616;43.522;1.348;2023-04-28T05:17:16;6.10;;;1.53;;
80307;SDS011;69616;43.522;1.348;2023-04-28T05:19:41;5.57;;;1.53;;
80307;SDS011;69616;43.522;1.348;2023-04-28T05:22:06;4.80;;;1.57;;
80307;SDS011;69616;43.522;1.348;2023-04-28T05:24:32;6.00;;;1.63;;
80307;SDS011;69616;43.522;1.348;2023-04-28T05:26:57;6.40;;;1.50;;
80307;SDS011;69616;43.522;1.348;2023-04-28T05:29:23;7.83;;;1.70;;
80307;SDS011;69616;43.522;1.348;2023-04-28T05:31:48;5.67;;;1.70;;
80307;SDS011;69616;43.522;1.348;2023-04-28T05:34:14;8.00;;;1.80;;
80307;SDS011;69616;43.522;1.348;2023-04-28T05:36:39;5.27;;;1.90;;
80307;SDS011;69616;43.522;1.348;2023-04-28T05:39:05;5.50;;;1.75;;
80307;SDS011;69616;43.522;1.348;2023-04-28T05:41:31;4.93;;;1.77;;
80307;SDS011;69616;43.522;1.348;2023-04-28T05:43:57;4.80;;;2.03;;
80307;SDS011;69616;43.522;1.348;2023-04-28T05:46:22;5.90;;;2.00;;
80307;SDS011;69616;43.522;1.348;2023-04-28T05:48:47;4.87;;;1.90;;
80307;SDS011;69616;43.522;1.348;2023-04-28T05:51:13;7.70;;;2.43;;
80307;SDS011;69616;43.522;1.348;2023-04-28T05:53:38;7.07;;;2.20;;
80307;SDS011;69616;43.522;1.348;2023-04-28T05:56:04;9.37;;;3.27;;
80307;SDS011;69616;43.522;1.348;2023-04-28T05:58:30;5.47;;;1.90;;
80307;SDS011;69616;43.522;1.348;2023-04-28T06:00:56;7.20;;;2.30;;
80307;SDS011;69616;43.522;1.348;2023-04-28T06:03:22;6.45;;;2.10;;
80307;SDS011;69616;43.522;1.348;2023-04-28T06:05:47;7.17;;;2.67;;
80307;SDS011;69616;43.522;1.348;2023-04-28T06:08:13;8.68;;;2.80;;
80307;SDS011;69616;43.522;1.348;2023-04-28T06:10:38;6.33;;;2.40;;
80307;SDS011;69616;43.522;1.348;2023-04-28T06:13:03;7.00;;;2.87;;
80307;SDS011;69616;43.522;1.348;2023-04-28T06:15:30;7.57;;;2.97;;
80307;SDS011;69616;43.522;1.348;2023-04-28T06:17:56;6.45;;;2.58;;
80307;SDS011;69616;43.522;1.348;2023-04-28T06:20:23;8.20;;;2.97;;
80307;SDS011;69616;43.522;1.348;2023-04-28T06:22:48;6.00;;;3.00;;
80307;SDS011;69616;43.522;1.348;2023-04-28T06:25:14;7.40;;;2.93;;
80307;SDS011;69616;43.522;1.348;2023-04-28T06:27:39;7.63;;;2.97;;
80307;SDS011;69616;43.522;1.348;2023-04-28T06:30:05;6.70;;;2.70;;
80307;SDS011;69616;43.522;1.348;2023-04-28T06:32:31;8.55;;;2.90;;
80307;SDS011;69616;43.522;1.348;2023-04-28T06:34:56;5.97;;;2.63;;
80307;SDS011;69616;43.522;1.348;2023-04-28T06:37:22;9.63;;;2.87;;
80307;SDS011;69616;43.522;1.348;2023-04-28T06:39:47;5.07;;;2.30;;
80307;SDS011;69616;43.522;1.348;2023-04-28T06:42:12;6.83;;;2.60;;
80307;SDS011;69616;43.522;1.348;2023-04-28T06:44:42;8.13;;;2.75;;
80307;SDS011;69616;43.522;1.348;2023-04-28T06:47:07;8.25;;;3.00;;
80307;SDS011;69616;43.522;1.348;2023-04-28T06:49:33;7.77;;;2.60;;
80307;SDS011;69616;43.522;1.348;2023-04-28T06:51:58;6.37;;;2.80;;
80307;SDS011;69616;43.522;1.348;2023-04-28T06:54:23;10.20;;;2.87;;
80307;SDS011;69616;43.522;1.348;2023-04-28T06:56:49;7.53;;;2.93;;
80307;SDS011;69616;43.522;1.348;2023-04-28T06:59:14;8.85;;;3.08;;
80307;SDS011;69616;43.522;1.348;2023-04-28T07:01:40;6.57;;;2.93;;
80307;SDS011;69616;43.522;1.348;2023-04-28T07:04:05;7.20;;;2.80;;
80307;SDS011;69616;43.522;1.348;2023-04-28T07:06:31;9.65;;;3.20;;
80307;SDS011;69616;43.522;1.348;2023-04-28T07:08:56;7.97;;;3.00;;
80307;SDS011;69616;43.522;1.348;2023-04-28T07:11:22;11.10;;;3.20;;
80307;SDS011;69616;43.522;1.348;2023-04-28T07:13:47;13.30;;;2.87;;
80307;SDS011;69616;43.522;1.348;2023-04-28T07:16:15;7.13;;;2.45;;
80307;SDS011;69616;43.522;1.348;2023-04-28T07:18:44;6.75;;;2.50;;
80307;SDS011;69616;43.522;1.348;2023-04-28T07:21:10;7.13;;;2.45;;
80307;SDS011;69616;43.522;1.348;2023-04-28T07:23:35;10.57;;;3.07;;
80307;SDS011;69616;43.522;1.348;2023-04-28T07:26:02;7.97;;;2.35;;
80307;SDS011;69616;43.522;1.348;2023-04-28T07:28:28;6.80;;;2.47;;
80307;SDS011;69616;43.522;1.348;2023-04-28T07:30:53;5.63;;;2.40;;
80307;SDS011;69616;43.522;1.348;2023-04-28T07:33:19;8.53;;;2.60;;
80307;SDS011;69616;43.522;1.348;2023-04-28T07:35:44;7.63;;;2.30;;
80307;SDS011;69616;43.522;1.348;2023-04-28T07:38:10;9.10;;;2.63;;
80307;SDS011;69616;43.522;1.348;2023-04-28T07:40:36;8.63;;;2.50;;
80307;SDS011;69616;43.522;1.348;2023-04-28T07:43:01;7.33;;;2.70;;
80307;SDS011;69616;43.522;1.348;2023-04-28T07:45:27;10.45;;;3.10;;
80307;SDS011;69616;43.522;1.348;2023-04-28T07:47:53;9.65;;;2.80;;
80307;SDS011;69616;43.522;1.348;2023-04-28T07:50:18;9.60;;;2.80;;
80307;SDS011;69616;43.522;1.348;2023-04-28T07:52:44;9.00;;;2.73;;
80307;SDS011;69616;43.522;1.348;2023-04-28T07:55:09;7.07;;;3.20;;
80307;SDS011;69616;43.522;1.348;2023-04-28T07:57:35;6.53;;;2.70;;
80307;SDS011;69616;43.522;1.348;2023-04-28T08:00:01;7.78;;;3.33;;
80307;SDS011;69616;43.522;1.348;2023-04-28T08:02:28;8.93;;;3.20;;
80307;SDS011;69616;43.522;1.348;2023-04-28T08:04:53;8.47;;;3.63;;
80307;SDS011;69616;43.522;1.348;2023-04-28T08:07:19;8.30;;;3.40;;
80307;SDS011;69616;43.522;1.348;2023-04-28T08:09:44;8.23;;;3.53;;
80307;SDS011;69616;43.522;1.348;2023-04-28T08:12:12;7.60;;;3.47;;
80307;SDS011;69616;43.522;1.348;2023-04-28T08:14:38;10.45;;;3.28;;
80307;SDS011;69616;43.522;1.348;2023-04-28T08:17:04;7.10;;;3.30;;
80307;SDS011;69616;43.522;1.348;2023-04-28T08:19:29;6.73;;;2.90;;
80307;SDS011;69616;43.522;1.348;2023-04-28T08:21:54;7.77;;;2.90;;
80307;SDS011;69616;43.522;1.348;2023-04-28T08:24:20;7.30;;;3.10;;
80307;SDS011;69616;43.522;1.348;2023-04-28T08:26:45;8.83;;;3.20;;
80307;SDS011;69616;43.522;1.348;2023-04-28T08:29:11;7.93;;;3.23;;
80307;SDS011;69616;43.522;1.348;2023-04-28T08:31:36;9.57;;;4.10;;
80307;SDS011;69616;43.522;1.348;2023-04-28T08:34:02;7.82;;;3.20;;
80307;SDS011;69616;43.522;1.348;2023-04-28T08:36:27;6.77;;;2.97;;
80307;SDS011;69616;43.522;1.348;2023-04-28T08:38:56;6.45;;;3.22;;
80307;SDS011;69616;43.522;1.348;2023-04-28T08:41:27;6.50;;;3.22;;
80307;SDS011;69616;43.522;1.348;2023-04-28T08:43:57;8.77;;;3.60;;
80307;SDS011;69616;43.522;1.348;2023-04-28T08:46:22;8.65;;;3.53;;
80307;SDS011;69616;43.522;1.348;2023-04-28T08:48:51;9.30;;;3.05;;
80307;SDS011;69616;43.522;1.348;2023-04-28T08:52:08;10.15;;;3.50;;
80307;SDS011;69616;43.522;1.348;2023-04-28T08:54:19;6.85;;;3.17;;
80307;SDS011;69616;43.522;1.348;2023-04-28T08:56:47;7.07;;;3.23;;
80307;SDS011;69616;43.522;1.348;2023-04-28T08:59:13;8.90;;;3.03;;
80307;SDS011;69616;43.522;1.348;2023-04-28T09:01:39;5.95;;;2.60;;
80307;SDS011;69616;43.522;1.348;2023-04-28T09:04:05;8.87;;;2.83;;
80307;SDS011;69616;43.522;1.348;2023-04-28T09:06:34;6.25;;;2.80;;
80307;SDS011;69616;43.522;1.348;2023-04-28T09:11:59;6.18;;;2.75;;
80307;SDS011;69616;43.522;1.348;2023-04-28T09:14:26;8.68;;;3.05;;
80307;SDS011;69616;43.522;1.348;2023-04-28T09:16:52;8.43;;;2.72;;
80307;SDS011;69616;43.522;1.348;2023-04-28T09:19:18;7.78;;;3.60;;
80307;SDS011;69616;43.522;1.348;2023-04-28T09:21:45;7.37;;;3.40;;
80307;SDS011;69616;43.522;1.348;2023-04-28T09:24:34;8.20;;;3.00;;
80307;SDS011;69616;43.522;1.348;2023-04-28T09:27:02;7.97;;;3.47;;
80307;SDS011;69616;43.522;1.348;2023-04-28T09:29:31;9.18;;;3.50;;
80307;SDS011;69616;43.522;1.348;2023-04-28T09:32:16;6.10;;;2.80;;
80307;SDS011;69616;43.522;1.348;2023-04-28T09:34:45;9.20;;;3.00;;
80307;SDS011;69616;43.522;1.348;2023-04-28T09:37:21;7.05;;;2.60;;
80307;SDS011;69616;43.522;1.348;2023-04-28T09:39:55;7.05;;;3.33;;
80307;SDS011;69616;43.522;1.348;2023-04-28T09:44:57;10.00;;;3.55;;
80307;SDS011;69616;43.522;1.348;2023-04-28T09:47:23;6.27;;;2.80;;
80307;SDS011;69616;43.522;1.348;2023-04-28T09:49:56;6.72;;;2.88;;
80307;SDS011;69616;43.522;1.348;2023-04-28T09:52:23;7.63;;;3.13;;
80307;SDS011;69616;43.522;1.348;2023-04-28T09:54:49;7.37;;;2.87;;
80307;SDS011;69616;43.522;1.348;2023-04-28T09:57:16;7.70;;;2.90;;
80307;SDS011;69616;43.522;1.348;2023-04-28T09:59:52;6.80;;;3.28;;
80307;SDS011;69616;43.522;1.348;2023-04-28T10:02:18;7.70;;;3.25;;
80307;SDS011;69616;43.522;1.348;2023-04-28T10:04:45;7.10;;;3.27;;
80307;SDS011;69616;43.522;1.348;2023-04-28T10:07:14;6.45;;;2.88;;
80307;SDS011;69616;43.522;1.348;2023-04-28T10:09:43;7.50;;;3.30;;
80307;SDS011;69616;43.522;1.348;2023-04-28T10:12:12;7.97;;;3.40;;
80307;SDS011;69616;43.522;1.348;2023-04-28T10:14:38;7.47;;;3.42;;
80307;SDS011;69616;43.522;1.348;2023-04-28T10:17:04;6.73;;;3.20;;
80307;SDS011;69616;43.522;1.348;2023-04-28T10:19:31;9.30;;;3.38;;
80307;SDS011;69616;43.522;1.348;2023-04-28T10:25:03;6.75;;;3.05;;
80307;SDS011;69616;43.522;1.348;2023-04-28T10:27:42;9.07;;;3.55;;
80307;SDS011;69616;43.522;1.348;2023-04-28T10:30:10;6.30;;;3.27;;
80307;SDS011;69616;43.522;1.348;2023-04-28T10:32:40;8.48;;;3.03;;
80307;SDS011;69616;43.522;1.348;2023-04-28T10:40:36;6.30;;;3.05;;
80307;SDS011;69616;43.522;1.348;2023-04-28T10:43:04;6.37;;;3.03;;
80307;SDS011;69616;43.522;1.348;2023-04-28T10:58:56;8.90;;;3.00;;
80307;SDS011;69616;43.522;1.348;2023-04-28T11:01:31;6.97;;;2.95;;
80307;SDS011;69616;43.522;1.348;2023-04-28T11:06:32;8.18;;;3.30;;
80307;SDS011;69616;43.522;1.348;2023-04-28T11:16:51;6.03;;;3.37;;
80307;SDS011;69616;43.522;1.348;2023-04-28T11:19:25;8.93;;;3.45;;
80307;SDS011;69616;43.522;1.348;2023-04-28T11:21:52;7.57;;;2.92;;
80307;SDS011;69616;43.522;1.348;2023-04-28T11:24:20;6.00;;;2.92;;
80307;SDS011;69616;43.522;1.348;2023-04-28T11:26:46;7.15;;;2.80;;
80307;SDS011;69616;43.522;1.348;2023-04-28T11:29:12;5.97;;;2.73;;
80307;SDS011;69616;43.522;1.348;2023-04-28T11:31:39;6.43;;;2.90;;
80307;SDS011;69616;43.522;1.348;2023-04-28T11:34:06;6.45;;;2.92;;
80307;SDS011;69616;43.522;1.348;2023-04-28T11:36:38;6.38;;;2.83;;
80307;SDS011;69616;43.522;1.348;2023-04-28T11:39:05;7.85;;;3.22;;
80307;SDS011;69616;43.522;1.348;2023-04-28T11:41:36;7.47;;;3.20;;
80307;SDS011;69616;43.522;1.348;2023-04-28T11:44:12;6.28;;;2.75;;
80307;SDS011;69616;43.522;1.348;2023-04-28T11:49:09;8.88;;;2.90;;
80307;SDS011;69616;43.522;1.348;2023-04-28T11:51:35;7.43;;;3.53;;
80307;SDS011;69616;43.522;1.348;2023-04-28T11:54:03;6.32;;;2.92;;
80307;SDS011;69616;43.522;1.348;2023-04-28T11:56:35;6.30;;;2.70;;
80307;SDS011;69616;43.522;1.348;2023-04-28T11:59:05;7.20;;;3.03;;
80307;SDS011;69616;43.522;1.348;2023-04-28T12:01:43;7.20;;;2.72;;
80307;SDS011;69616;43.522;1.348;2023-04-28T12:04:34;7.30;;;2.95;;
80307;SDS011;69616;43.522;1.348;2023-04-28T12:07:17;9.50;;;3.13;;
80307;SDS011;69616;43.522;1.348;2023-04-28T12:12:35;8.73;;;3.20;;
80307;SDS011;69616;43.522;1.348;2023-04-28T12:15:01;6.68;;;3.00;;
80307;SDS011;69616;43.522;1.348;2023-04-28T12:17:35;7.17;;;2.90;;
80307;SDS011;69616;43.522;1.348;2023-04-28T12:20:06;6.97;;;2.90;;
80307;SDS011;69616;43.522;1.348;2023-04-28T12:22:43;8.60;;;3.17;;
80307;SDS011;69616;43.522;1.348;2023-04-28T12:25:11;6.38;;;3.03;;
80307;SDS011;69616;43.522;1.348;2023-04-28T12:27:38;8.63;;;3.58;;
80307;SDS011;69616;43.522;1.348;2023-04-28T12:32:45;7.95;;;3.28;;
80307;SDS011;69616;43.522;1.348;2023-04-28T12:35:11;7.85;;;3.03;;
80307;SDS011;69616;43.522;1.348;2023-04-28T12:37:37;6.30;;;2.87;;
80307;SDS011;69616;43.522;1.348;2023-04-28T12:40:04;9.32;;;3.08;;
80307;SDS011;69616;43.522;1.348;2023-04-28T12:42:30;8.40;;;3.40;;
80307;SDS011;69616;43.522;1.348;2023-04-28T12:44:57;7.57;;;3.10;;
80307;SDS011;69616;43.522;1.348;2023-04-28T12:47:23;8.37;;;3.23;;
80307;SDS011;69616;43.522;1.348;2023-04-28T12:49:48;8.15;;;3.40;;
80307;SDS011;69616;43.522;1.348;2023-04-28T12:52:17;8.37;;;3.50;;
80307;SDS011;69616;43.522;1.348;2023-04-28T12:54:43;9.13;;;3.33;;
80307;SDS011;69616;43.522;1.348;2023-04-28T12:57:11;8.75;;;4.13;;
80307;SDS011;69616;43.522;1.348;2023-04-28T12:59:37;8.68;;;3.53;;
80307;SDS011;69616;43.522;1.348;2023-04-28T13:02:03;9.43;;;3.70;;
80307;SDS011;69616;43.522;1.348;2023-04-28T13:04:28;8.98;;;3.60;;
80307;SDS011;69616;43.522;1.348;2023-04-28T13:06:55;7.95;;;3.50;;
80307;SDS011;69616;43.522;1.348;2023-04-28T13:09:23;10.00;;;3.80;;
80307;SDS011;69616;43.522;1.348;2023-04-28T13:11:49;9.07;;;3.30;;
80307;SDS011;69616;43.522;1.348;2023-04-28T13:14:15;10.75;;;3.90;;
80307;SDS011;69616;43.522;1.348;2023-04-28T13:16:40;15.73;;;3.90;;
80307;SDS011;69616;43.522;1.348;2023-04-28T13:19:06;10.00;;;3.70;;
80307;SDS011;69616;43.522;1.348;2023-04-28T13:21:37;10.27;;;3.10;;
80307;SDS011;69616;43.522;1.348;2023-04-28T13:24:03;9.57;;;3.57;;
80307;SDS011;69616;43.522;1.348;2023-04-28T13:26:29;11.98;;;4.15;;
80307;SDS011;69616;43.522;1.348;2023-04-28T13:28:55;9.45;;;3.92;;
80307;SDS011;69616;43.522;1.348;2023-04-28T13:31:21;9.37;;;3.43;;
80307;SDS011;69616;43.522;1.348;2023-04-28T13:33:46;10.60;;;3.45;;
80307;SDS011;69616;43.522;1.348;2023-04-28T13:36:12;10.40;;;3.40;;
80307;SDS011;69616;43.522;1.348;2023-04-28T13:38:37;9.87;;;3.77;;
80307;SDS011;69616;43.522;1.348;2023-04-28T13:41:03;11.23;;;4.10;;
80307;SDS011;69616;43.522;1.348;2023-04-28T13:43:28;8.85;;;3.58;;
80307;SDS011;69616;43.522;1.348;2023-04-28T13:45:55;11.17;;;3.60;;
80307;SDS011;69616;43.522;1.348;2023-04-28T13:48:21;10.60;;;3.75;;
80307;SDS011;69616;43.522;1.348;2023-04-28T13:50:46;8.47;;;4.20;;
80307;SDS011;69616;43.522;1.348;2023-04-28T13:53:11;10.37;;;3.97;;
80307;SDS011;69616;43.522;1.348;2023-04-28T13:55:37;10.13;;;3.88;;
80307;SDS011;69616;43.522;1.348;2023-04-28T13:58:02;8.43;;;3.33;;
80307;SDS011;69616;43.522;1.348;2023-04-28T14:00:29;9.77;;;3.20;;
80307;SDS011;69616;43.522;1.348;2023-04-28T14:02:56;9.10;;;3.50;;
80307;SDS011;69616;43.522;1.348;2023-04-28T14:05:22;10.63;;;3.55;;
80307;SDS011;69616;43.522;1.348;2023-04-28T14:07:47;9.70;;;3.23;;
80307;SDS011;69616;43.522;1.348;2023-04-28T14:10:13;8.85;;;3.10;;
80307;SDS011;69616;43.522;1.348;2023-04-28T14:12:38;10.77;;;3.50;;
80307;SDS011;69616;43.522;1.348;2023-04-28T14:15:04;11.57;;;3.37;;
80307;SDS011;69616;43.522;1.348;2023-04-28T14:17:30;8.15;;;3.08;;
80307;SDS011;69616;43.522;1.348;2023-04-28T14:20:02;10.27;;;3.17;;
80307;SDS011;69616;43.522;1.348;2023-04-28T14:22:28;9.65;;;2.90;;
80307;SDS011;69616;43.522;1.348;2023-04-28T14:24:53;10.97;;;3.40;;
80307;SDS011;69616;43.522;1.348;2023-04-28T14:27:19;9.68;;;2.83;;
80307;SDS011;69616;43.522;1.348;2023-04-28T14:29:46;7.87;;;2.70;;
80307;SDS011;69616;43.522;1.348;2023-04-28T14:32:14;5.90;;;2.60;;
80307;SDS011;69616;43.522;1.348;2023-04-28T14:34:40;9.30;;;3.08;;
80307;SDS011;69616;43.522;1.348;2023-04-28T14:37:06;7.20;;;2.30;;
80307;SDS011;69616;43.522;1.348;2023-04-28T14:39:33;7.43;;;2.47;;
80307;SDS011;69616;43.522;1.348;2023-04-28T14:41:58;6.60;;;2.58;;
80307;SDS011;69616;43.522;1.348;2023-04-28T14:44:24;6.90;;;2.23;;
80307;SDS011;69616;43.522;1.348;2023-04-28T14:46:50;9.98;;;3.03;;
80307;SDS011;69616;43.522;1.348;2023-04-28T14:49:15;6.67;;;2.50;;
80307;SDS011;69616;43.522;1.348;2023-04-28T14:51:41;10.07;;;2.70;;
80307;SDS011;69616;43.522;1.348;2023-04-28T14:54:07;12.03;;;2.90;;
80307;SDS011;69616;43.522;1.348;2023-04-28T14:56:33;8.43;;;2.42;;
80307;SDS011;69616;43.522;1.348;2023-04-28T14:58:58;5.63;;;1.90;;
80307;SDS011;69616;43.522;1.348;2023-04-28T15:01:24;7.83;;;2.60;;
80307;SDS011;69616;43.522;1.348;2023-04-28T15:03:49;7.03;;;2.47;;
80307;SDS011;69616;43.522;1.348;2023-04-28T15:06:15;6.18;;;2.30;;
80307;SDS011;69616;43.522;1.348;2023-04-28T15:08:40;6.20;;;2.50;;
80307;SDS011;69616;43.522;1.348;2023-04-28T15:11:06;8.43;;;2.90;;
80307;SDS011;69616;43.522;1.348;2023-04-28T15:13:31;11.40;;;3.47;;
80307;SDS011;69616;43.522;1.348;2023-04-28T15:15:57;8.80;;;2.53;;
80307;SDS011;69616;43.522;1.348;2023-04-28T15:18:22;9.27;;;2.60;;
80307;SDS011;69616;43.522;1.348;2023-04-28T15:20:48;6.03;;;2.85;;
80307;SDS011;69616;43.522;1.348;2023-04-28T15:23:14;9.27;;;2.42;;
80307;SDS011;69616;43.522;1.348;2023-04-28T15:25:40;9.07;;;3.00;;
80307;SDS011;69616;43.522;1.348;2023-04-28T15:28:05;7.40;;;2.60;;